Time;durP1;ratioP1;P1;durP2;ratioP2;P2;SDS_P1;SDS_P2;PMS_P1;PMS_P2;Temp;Humidity;BMP_temperature;BMP_pressure;BME280_temperature;BME280_humidity;BME280_pressure;Samples;Min_cycle;Max_cycle;Signal;HPM_P1;HPM_P2
2022/01/22 09:37:12;;;;;;;3.05;1.58;;;;;;;-0.73;100.00;96451.28;5141303;27;20142;-65
2022/01/22 09:39:38;;;;;;;4.55;1.85;;;;;;;-0.66;100.00;96457.53;5127848;28;20043;-64
2022/01/22 09:42:03;;;;;;;2.75;1.58;;;;;;;-0.61;100.00;96460.53;5116033;28;20023;-66
2022/01/22 09:44:29;;;;;;;3.72;1.60;;;;;;;-0.55;100.00;96462.50;5111628;28;20096;-64
2022/01/22 09:46:56;;;;;;;1.85;1.42;;;;;;;-0.49;100.00;96467.13;5104206;28;20023;-64
2022/01/22 09:49:22;;;;;;;5.15;1.90;;;;;;;-0.43;100.00;96465.66;5100285;28;20112;-68
2022/01/22 09:51:48;;;;;;;3.42;1.65;;;;;;;-0.35;100.00;96471.75;5087394;28;20110;-65
2022/01/22 09:54:13;;;;;;;4.38;1.88;;;;;;;-0.30;100.00;96481.78;5084468;28;20088;-64
2022/01/22 09:56:41;;;;;;;3.63;1.75;;;;;;;-0.22;100.00;96492.31;5102499;28;20015;-64
2022/01/22 09:59:09;;;;;;;4.25;1.67;;;;;;;-0.19;100.00;96494.66;5101282;28;20423;-64
2022/01/22 10:01:35;;;;;;;3.08;1.60;;;;;;;-0.14;100.00;96502.84;5088420;28;20028;-64
2022/01/22 10:04:04;;;;;;;3.08;1.67;;;;;;;-0.08;100.00;96511.94;5102901;28;20390;-65
2022/01/22 10:06:33;;;;;;;4.80;1.40;;;;;;;0.03;100.00;96508.16;5103210;28;20064;-64
2022/01/22 10:09:12;;;;;;;2.05;1.35;;;;;;;0.09;100.00;96521.47;5106223;28;20107;-66
2022/01/22 10:11:38;;;;;;;3.60;1.48;;;;;;;0.13;100.00;96525.44;5105653;28;20445;-65
2022/01/22 10:14:04;;;;;;;5.43;1.70;;;;;;;0.17;100.00;96541.75;5089120;28;20020;-64
2022/01/22 10:16:32;;;;;;;2.75;1.40;;;;;;;0.20;100.00;96546.66;5106777;28;20020;-66
2022/01/22 10:19:09;;;;;;;7.45;1.30;;;;;;;0.23;100.00;96549.81;5106423;28;20389;-65
2022/01/22 10:21:36;;;;;;;5.60;1.67;;;;;;;0.28;100.00;96544.88;5107545;28;20390;-66
2022/01/22 10:24:23;;;;;;;2.85;1.48;;;;;;;0.32;100.00;96536.63;5106931;28;20359;-65
2022/01/22 10:30:03;;;;;;;1.98;1.30;;;;;;;0.37;100.00;96552.78;5104473;28;20036;-65
2022/01/22 10:32:43;;;;;;;4.65;1.50;;;;;;;0.52;100.00;96559.84;5105707;28;20504;-64
2022/01/22 10:35:23;;;;;;;3.50;1.52;;;;;;;0.72;100.00;96572.69;5093331;28;20383;-65
2022/01/22 10:37:54;;;;;;;2.97;1.88;;;;;;;0.97;100.00;96565.53;5106868;28;20027;-65
2022/01/22 10:40:35;;;;;;;2.28;1.52;;;;;;;1.29;100.00;96575.19;5107364;28;20463;-65
2022/01/22 10:43:20;;;;;;;2.85;1.75;;;;;;;1.74;100.00;96590.34;5106739;28;20055;-65
2022/01/22 10:48:59;;;;;;;5.90;2.17;;;;;;;2.61;100.00;96617.38;5075531;28;20028;-65
2022/01/22 10:51:27;;;;;;;2.28;1.60;;;;;;;2.81;100.00;96637.03;5093584;28;20035;-65
2022/01/22 10:53:59;;;;;;;6.40;1.98;;;;;;;2.98;100.00;96626.31;5092842;28;20016;-65
2022/01/22 10:56:27;;;;;;;4.13;2.03;;;;;;;3.05;100.00;96659.03;5074804;28;20082;-66
2022/01/22 10:58:56;;;;;;;4.50;1.70;;;;;;;3.11;100.00;96667.06;5093432;28;20368;-68
2022/01/22 11:01:24;;;;;;;3.90;1.50;;;;;;;3.05;100.00;96682.84;5092868;28;20028;-65
2022/01/22 11:04:07;;;;;;;5.93;1.60;;;;;;;2.93;100.00;96706.28;5058161;28;20120;-65
2022/01/22 11:06:32;;;;;;;1.92;1.50;;;;;;;2.77;100.00;96728.38;5060282;28;20490;-65
2022/01/22 11:08:58;;;;;;;3.05;1.70;;;;;;;2.66;100.00;96742.00;5093267;28;20136;-64
2022/01/22 11:11:26;;;;;;;3.30;1.58;;;;;;;2.65;100.00;96755.41;5092343;28;20024;-63
2022/01/22 11:13:52;;;;;;;2.30;1.25;;;;;;;2.69;100.00;96746.13;5093416;28;20031;-63
2022/01/22 11:16:18;;;;;;;4.22;1.80;;;;;;;2.84;100.00;96749.69;5074477;28;20398;-64
2022/01/22 11:18:47;;;;;;;2.80;1.60;;;;;;;3.02;100.00;96744.06;5091839;28;20024;-65
2022/01/22 11:21:15;;;;;;;6.70;2.13;;;;;;;3.10;100.00;96746.66;5093171;28;20077;-63
2022/01/22 11:23:42;;;;;;;3.47;1.38;;;;;;;3.13;100.00;96759.53;5091855;28;20020;-65
2022/01/22 11:26:08;;;;;;;4.43;1.52;;;;;;;3.03;100.00;96769.53;5092643;28;20032;-65
2022/01/22 11:28:34;;;;;;;4.10;1.60;;;;;;;2.88;100.00;96774.78;5092524;28;20055;-66
2022/01/22 11:31:01;;;;;;;5.10;1.70;;;;;;;2.94;100.00;96792.63;5067433;28;20055;-66
2022/01/22 11:33:28;;;;;;;2.15;1.40;;;;;;;3.00;100.00;96806.97;5101028;22;20067;-67
2022/01/22 11:36:02;;;;;;;2.38;1.45;;;;;;;2.95;100.00;96798.72;5067795;28;20024;-67
2022/01/22 11:38:36;;;;;;;4.38;1.23;;;;;;;2.92;100.00;96813.94;5074361;28;20081;-67
2022/01/22 11:41:04;;;;;;;5.63;1.50;;;;;;;2.97;100.00;96820.56;5090762;28;20060;-67
2022/01/22 11:44:16;;;;;;;1.58;1.33;;;;;;;2.91;100.00;96809.66;5071827;28;20408;-67
2022/01/22 11:46:58;;;;;;;3.22;1.23;;;;;;;2.88;100.00;96809.19;5064005;28;20036;-67
2022/01/22 11:49:27;;;;;;;2.17;1.30;;;;;;;2.80;100.00;96815.34;5039154;28;20040;-67
2022/01/22 11:52:14;;;;;;;3.25;1.45;;;;;;;2.60;100.00;96803.53;5052108;28;20052;-67
2022/01/22 11:54:51;;;;;;;2.70;1.73;;;;;;;2.52;100.00;96791.19;5032781;28;20029;-67
2022/01/22 11:57:17;;;;;;;3.00;1.63;;;;;;;2.53;100.00;96784.06;5034367;28;20028;-67
2022/01/22 11:59:43;;;;;;;1.73;1.40;;;;;;;2.52;100.00;96767.38;5031646;28;20033;-67
2022/01/22 12:02:14;;;;;;;2.28;1.35;;;;;;;2.46;100.00;96746.91;5050609;28;20539;-67
2022/01/22 12:04:39;;;;;;;4.15;1.30;;;;;;;2.49;100.00;96743.09;5042069;28;20029;-67
2022/01/22 12:07:05;;;;;;;2.95;1.55;;;;;;;2.56;100.00;96736.94;5032616;28;20403;-67
2022/01/22 12:10:15;;;;;;;1.73;1.35;;;;;;;2.66;100.00;96730.59;5051845;28;20032;-67
2022/01/22 12:15:41;;;;;;;3.63;1.50;;;;;;;3.63;100.00;96707.78;5051963;28;20040;-68
2022/01/22 12:18:14;;;;;;;6.85;1.65;;;;;;;3.84;100.00;96722.97;5050288;28;20036;-67
2022/01/22 12:23:36;;;;;;;3.55;1.85;;;;;;;4.12;100.00;96750.47;5050949;28;20036;-67
2022/01/22 12:26:04;;;;;;;3.13;1.58;;;;;;;4.07;100.00;96760.81;5033297;28;20432;-67
2022/01/22 12:28:40;;;;;;;4.18;1.60;;;;;;;4.17;100.00;96760.53;5034003;28;20024;-67
2022/01/22 12:31:11;;;;;;;3.95;1.50;;;;;;;4.32;100.00;96756.03;5050410;28;20090;-67
2022/01/22 12:33:39;;;;;;;3.05;1.88;;;;;;;4.59;100.00;96751.91;5033324;28;20056;-67
2022/01/22 12:36:12;;;;;;;4.97;1.75;;;;;;;4.91;100.00;96748.78;5031627;28;20021;-66
2022/01/22 12:41:25;;;;;;;2.60;1.25;;;;;;;5.59;100.00;96782.94;5042057;28;20025;-67
2022/01/22 12:44:04;;;;;;;2.20;1.30;;;;;;;5.72;100.00;96806.97;5047651;28;20156;-66
2022/01/22 12:46:30;;;;;;;2.83;1.88;;;;;;;5.67;100.00;96820.00;5047893;28;20045;-67
2022/01/22 12:48:56;;;;;;;3.75;1.80;;;;;;;5.77;100.00;96807.22;5032814;28;20059;-66
2022/01/22 12:51:25;;;;;;;4.22;2.05;;;;;;;5.87;100.00;96797.06;5033942;28;20025;-67
2022/01/22 12:53:51;;;;;;;3.38;1.60;;;;;;;5.98;100.00;96799.22;5032186;28;20090;-68
2022/01/22 12:59:01;;;;;;;2.58;1.70;;;;;;;5.92;100.00;96804.50;5051171;28;20024;-67
2022/01/22 13:01:29;;;;;;;2.22;1.80;;;;;;;5.78;100.00;96804.38;5041421;28;20428;-68
2022/01/22 13:03:58;;;;;;;4.35;1.98;;;;;;;5.83;100.00;96807.25;5050944;28;20021;-68
2022/01/22 13:06:35;;;;;;;2.33;1.58;;;;;;;5.81;100.00;96809.28;5032449;28;20028;-67
2022/01/22 13:09:06;;;;;;;2.25;1.65;;;;;;;5.77;100.00;96820.50;5051250;28;20368;-67
2022/01/22 13:11:33;;;;;;;2.85;1.90;;;;;;;5.45;100.00;96822.69;5045999;28;20025;-67
2022/01/22 13:14:00;;;;;;;2.47;1.55;;;;;;;5.19;100.00;96822.41;5032372;28;20024;-67
2022/01/22 13:16:26;;;;;;;5.13;1.75;;;;;;;5.09;100.00;96801.44;5050975;28;20450;-67
2022/01/22 13:19:05;;;;;;;5.82;1.85;;;;;;;5.15;100.00;96806.03;5044749;28;20116;-67
2022/01/22 13:21:32;;;;;;;3.08;1.77;;;;;;;5.24;100.00;96801.41;5051345;28;20102;-67
2022/01/22 13:24:10;;;;;;;3.38;1.90;;;;;;;5.40;100.00;96789.72;5041585;28;20082;-67
2022/01/22 13:26:53;;;;;;;4.30;1.60;;;;;;;5.37;100.00;96792.75;5047500;28;20024;-66
2022/01/22 13:29:23;;;;;;;3.20;2.22;;;;;;;5.32;100.00;96784.50;5049236;28;20078;-67
2022/01/22 13:32:10;;;;;;;3.95;2.03;;;;;;;5.26;100.00;96785.28;5050619;28;20483;-68
2022/01/22 13:49:07;;;;;;;3.25;2.05;;;;;;;4.74;100.00;96733.28;5056191;28;20040;-67
2022/01/22 13:51:33;;;;;;;2.38;1.77;;;;;;;4.71;100.00;96731.00;5050968;28;20040;-68
2022/01/22 13:54:01;;;;;;;3.42;2.05;;;;;;;4.60;100.00;96727.00;5028382;28;20029;-67
2022/01/22 13:56:50;;;;;;;2.50;1.70;;;;;;;4.55;100.00;96708.16;5052436;28;20040;-68
2022/01/22 13:59:28;;;;;;;3.47;1.75;;;;;;;4.53;100.00;96691.59;5029042;28;20387;-67
2022/01/22 14:03:02;;;;;;;3.42;2.05;;;;;;;4.56;100.00;96689.41;5048186;28;20363;-68
2022/01/22 14:05:28;;;;;;;3.42;2.03;;;;;;;4.52;100.00;96682.00;4966134;28;20094;-68
2022/01/22 14:08:06;;;;;;;3.10;2.10;;;;;;;4.54;100.00;96672.00;4967458;28;20053;-67
2022/01/22 14:10:33;;;;;;;3.17;1.75;;;;;;;4.53;100.00;96655.28;4971595;28;20086;-67
2022/01/22 14:13:05;;;;;;;2.35;1.80;;;;;;;4.44;100.00;96652.91;4968497;28;20098;-67
2022/01/22 14:15:43;;;;;;;3.13;1.75;;;;;;;4.28;100.00;96661.94;4974046;28;20406;-67
2022/01/22 14:18:32;;;;;;;3.00;1.80;;;;;;;4.21;100.00;96667.16;4969361;28;20113;-67
2022/01/22 14:21:06;;;;;;;2.92;1.80;;;;;;;4.21;100.00;96658.38;4952181;28;20030;-67
2022/01/22 14:23:33;;;;;;;2.05;1.60;;;;;;;4.18;100.00;96642.84;4970345;28;20078;-67
2022/01/22 14:26:08;;;;;;;3.45;1.85;;;;;;;4.20;100.00;96635.53;4971704;28;20054;-68
2022/01/22 14:28:42;;;;;;;4.88;1.77;;;;;;;4.20;100.00;96628.38;4958922;28;20401;-68
2022/01/22 14:31:22;;;;;;;3.40;1.60;;;;;;;4.19;100.00;96634.69;4974683;28;20934;-67
2022/01/22 14:33:50;;;;;;;3.45;1.77;;;;;;;4.21;100.00;96623.91;4987213;28;20120;-67
2022/01/22 14:36:18;;;;;;;2.45;2.00;;;;;;;4.16;100.00;96627.13;5030011;28;20036;-67
2022/01/22 14:44:29;;;;;;;2.92;1.90;;;;;;;4.33;100.00;96620.56;5050250;28;20040;-67
2022/01/22 14:46:58;;;;;;;2.58;1.73;;;;;;;4.37;100.00;96631.66;5051506;28;20047;-67
2022/01/22 14:49:31;;;;;;;3.72;2.00;;;;;;;4.26;100.00;96634.78;5033850;28;20098;-67
2022/01/22 14:52:00;;;;;;;2.35;1.60;;;;;;;4.24;100.00;96636.81;5052218;28;20029;-67
2022/01/22 14:54:28;;;;;;;3.67;1.80;;;;;;;4.11;100.00;96620.72;5051213;28;20476;-67
2022/01/22 14:56:55;;;;;;;3.35;1.65;;;;;;;4.05;100.00;96628.44;5057075;28;20040;-67
2022/01/22 14:59:21;;;;;;;4.18;1.80;;;;;;;4.07;100.00;96636.19;5035362;28;20036;-67
2022/01/22 15:01:47;;;;;;;4.78;1.88;;;;;;;4.02;100.00;96630.66;5065437;28;20025;-67
2022/01/22 15:04:12;;;;;;;3.00;2.05;;;;;;;3.92;100.00;96620.31;5060646;28;20107;-67
2022/01/22 15:06:38;;;;;;;3.15;1.83;;;;;;;3.88;100.00;96616.38;5030536;28;20111;-68
2022/01/22 15:09:05;;;;;;;3.80;2.22;;;;;;;3.81;100.00;96617.34;5057321;28;20025;-68
2022/01/22 15:11:34;;;;;;;2.92;2.10;;;;;;;3.78;100.00;96618.50;5054274;28;20016;-68
2022/01/22 15:14:05;;;;;;;3.90;2.08;;;;;;;3.81;100.00;96604.06;5049339;28;20024;-67
2022/01/22 15:16:49;;;;;;;2.53;2.00;;;;;;;3.77;100.00;96601.78;5035272;28;20052;-67
2022/01/22 15:19:19;;;;;;;3.78;2.35;;;;;;;3.81;100.00;96604.06;5051570;28;20028;-67
2022/01/22 15:21:50;;;;;;;3.08;2.10;;;;;;;3.74;100.00;96604.81;5052687;28;20029;-67
2022/01/22 15:24:19;;;;;;;3.88;2.08;;;;;;;3.58;100.00;96607.66;5061714;28;20123;-67
2022/01/22 15:26:46;;;;;;;3.67;2.10;;;;;;;3.49;100.00;96609.59;5036915;28;20028;-67
2022/01/22 15:29:15;;;;;;;3.72;2.50;;;;;;;3.41;100.00;96599.06;5035699;28;20116;-67
2022/01/22 15:32:06;;;;;;;4.75;2.45;;;;;;;3.33;100.00;96596.50;5053210;28;20526;-67
2022/01/22 15:37:04;;;;;;;2.83;2.17;;;;;;;3.22;100.00;96580.25;5050589;28;20051;-67
2022/01/22 15:39:30;;;;;;;2.70;2.00;;;;;;;3.15;100.00;96582.81;5034504;28;20070;-67
2022/01/22 15:41:59;;;;;;;4.95;2.08;;;;;;;3.09;100.00;96565.00;5051403;28;20072;-67
2022/01/22 15:44:29;;;;;;;4.55;1.90;;;;;;;3.01;100.00;96567.72;5051886;28;20111;-67
2022/01/22 15:46:54;;;;;;;2.47;1.83;;;;;;;2.92;100.00;96557.22;5052365;28;20021;-67
2022/01/22 15:49:23;;;;;;;2.80;2.05;;;;;;;2.84;100.00;96541.44;5050850;28;20029;-67
2022/01/22 15:51:54;;;;;;;5.78;2.25;;;;;;;2.76;100.00;96524.81;5035070;28;20487;-67
2022/01/22 15:54:20;;;;;;;4.57;2.40;;;;;;;2.62;100.00;96513.22;5047091;28;20025;-67
2022/01/22 15:56:47;;;;;;;3.42;2.53;;;;;;;2.55;100.00;96507.00;5052804;28;20602;-68
2022/01/22 15:59:14;;;;;;;2.70;2.33;;;;;;;2.44;100.00;96502.16;5051170;28;20119;-67
2022/01/22 16:01:41;;;;;;;3.40;2.60;;;;;;;2.36;100.00;96494.28;5051276;28;20036;-67
2022/01/22 16:04:12;;;;;;;3.70;2.35;;;;;;;2.27;100.00;96489.06;5052002;28;20035;-67
2022/01/22 16:09:17;;;;;;;3.70;2.40;;;;;;;2.11;100.00;96493.66;5040346;28;20025;-67
2022/01/22 16:11:43;;;;;;;6.78;3.30;;;;;;;2.04;100.00;96496.19;5050871;28;20151;-68
2022/01/22 16:14:09;;;;;;;4.40;2.92;;;;;;;1.95;100.00;96489.31;5034201;28;20119;-67
2022/01/22 16:16:38;;;;;;;4.15;2.92;;;;;;;1.86;100.00;96482.47;5052093;28;20040;-67
2022/01/22 16:19:04;;;;;;;4.50;3.15;;;;;;;1.72;100.00;96469.00;5043411;28;20032;-67
2022/01/22 16:21:30;;;;;;;5.53;3.28;;;;;;;1.58;100.00;96458.38;5052274;28;20025;-67
2022/01/22 16:23:58;;;;;;;7.53;3.58;;;;;;;1.42;100.00;96448.75;5043430;28;20032;-67
2022/01/22 16:26:24;;;;;;;6.85;3.78;;;;;;;1.26;100.00;96441.72;5047330;28;20023;-67
2022/01/22 16:28:49;;;;;;;4.95;2.85;;;;;;;1.11;100.00;96432.91;5052084;28;20472;-68
2022/01/22 16:31:14;;;;;;;5.80;2.63;;;;;;;0.95;100.00;96420.63;5030060;28;20029;-67
2022/01/22 16:33:40;;;;;;;4.78;2.65;;;;;;;0.75;100.00;96407.00;5051614;28;20454;-67
2022/01/22 16:36:08;;;;;;;4.65;2.80;;;;;;;0.49;100.00;96407.28;5057455;28;20031;-67
2022/01/22 16:38:38;;;;;;;5.15;2.72;;;;;;;0.35;100.00;96412.44;5034077;28;20040;-67
2022/01/22 16:41:05;;;;;;;4.60;2.60;;;;;;;0.17;100.00;96405.56;5051489;28;20108;-67
2022/01/22 16:43:34;;;;;;;3.50;2.58;;;;;;;0.01;100.00;96405.59;5050693;28;20025;-67
2022/01/22 16:54:47;;;;;;;4.10;3.10;;;;;;;-0.52;100.00;96393.75;5027859;28;20032;-67
2022/01/22 16:57:15;;;;;;;4.97;2.78;;;;;;;-0.64;100.00;96395.91;5051336;28;20036;-67
2022/01/22 16:59:43;;;;;;;10.07;3.10;;;;;;;-0.74;100.00;96391.78;5028573;28;20044;-67
2022/01/22 17:02:16;;;;;;;6.90;3.40;;;;;;;-0.83;100.00;96388.31;5029773;28;20052;-67
2022/01/22 17:04:45;;;;;;;;;;;;;;;-0.93;100.00;96388.44;5051780;28;20033;-67
2022/01/22 17:07:28;;;;;;;8.55;3.30;;;;;;;-1.02;100.00;96386.78;5050215;28;19915;-67
2022/01/22 17:15:05;;;;;;;4.88;2.85;;;;;;;-1.35;100.00;96387.66;5050902;28;20056;-68
2022/01/22 17:17:33;;;;;;;5.55;2.95;;;;;;;-1.46;100.00;96376.47;5032290;28;20028;-67
2022/01/22 17:20:01;;;;;;;9.38;3.92;;;;;;;-1.54;100.00;96383.47;5051063;28;20029;-68
2022/01/22 17:22:26;;;;;;;8.30;3.85;;;;;;;-1.59;100.00;96391.03;5033319;28;20315;-67
2022/01/22 17:24:52;;;;;;;9.73;4.13;;;;;;;-1.65;100.00;96402.97;5014451;28;20102;-68
2022/01/22 17:27:21;;;;;;;6.68;4.03;;;;;;;-1.69;100.00;96398.19;5033239;28;20027;-67
2022/01/22 17:29:51;;;;;;;6.43;3.75;;;;;;;-1.73;100.00;96408.19;5047280;28;20033;-68
2022/01/22 17:34:48;;;;;;;6.20;3.65;;;;;;;-1.79;100.00;96416.69;5028024;28;20053;-66
2022/01/22 17:37:15;;;;;;;7.93;3.63;;;;;;;-1.87;100.00;96433.22;5015322;28;20064;-66
2022/01/22 17:39:41;;;;;;;7.55;4.03;;;;;;;-1.95;100.00;96429.75;5033673;28;20025;-66
2022/01/22 17:42:17;;;;;;;9.10;5.10;;;;;;;-2.01;100.00;96440.84;5023854;28;20025;-66
2022/01/22 17:44:47;;;;;;;8.70;4.95;;;;;;;-2.08;100.00;96454.56;5025888;28;20037;-66
2022/01/22 17:47:13;;;;;;;7.10;4.53;;;;;;;-2.12;100.00;96462.91;5032859;28;20025;-65
2022/01/22 17:49:42;;;;;;;9.13;4.40;;;;;;;-2.14;100.00;96472.75;5030297;28;20040;-66
2022/01/22 17:52:07;;;;;;;7.57;4.10;;;;;;;-2.19;100.00;96473.19;5012080;28;20033;-66
2022/01/22 17:54:35;;;;;;;8.48;4.40;;;;;;;-2.24;100.00;96480.69;5008305;28;20052;-65
2022/01/22 17:57:04;;;;;;;7.20;4.28;;;;;;;-2.30;100.00;96478.66;5012709;28;20034;-66
2022/01/22 17:59:30;;;;;;;7.55;4.15;;;;;;;-2.35;100.00;96481.75;5019744;28;20124;-65
2022/01/22 18:01:58;;;;;;;5.97;3.85;;;;;;;-2.37;100.00;96488.97;5016118;28;20030;-66
2022/01/22 18:04:23;;;;;;;8.77;4.35;;;;;;;-2.40;100.00;96494.47;5017043;28;20064;-66
2022/01/22 18:06:49;;;;;;;9.18;4.28;;;;;;;-2.42;100.00;96506.94;5017856;28;20057;-65
2022/01/22 18:09:15;;;;;;;7.25;4.32;;;;;;;-2.45;100.00;96509.03;5037153;28;20074;-64
2022/01/22 18:11:45;;;;;;;6.63;4.40;;;;;;;-2.53;100.00;96516.81;5035665;28;20022;-67
2022/01/22 18:14:17;;;;;;;7.22;5.07;;;;;;;-2.59;100.00;96520.88;5036649;28;20437;-66
2022/01/22 18:16:46;;;;;;;9.13;4.68;;;;;;;-2.68;100.00;96525.22;5037160;28;20022;-66
2022/01/22 18:19:11;;;;;;;5.80;3.85;;;;;;;-2.73;100.00;96530.06;5015271;28;20042;-65
2022/01/22 18:21:39;;;;;;;5.88;4.35;;;;;;;-2.77;100.00;96536.56;5017500;28;20045;-67
2022/01/22 18:24:14;;;;;;;8.48;5.30;;;;;;;-2.78;100.00;96547.22;5016529;28;20108;-65
2022/01/22 18:26:41;;;;;;;6.15;4.50;;;;;;;-2.78;100.00;96552.47;5018176;28;20029;-66
2022/01/22 18:29:13;;;;;;;11.18;5.35;;;;;;;-2.78;100.00;96562.94;5018962;28;20038;-66
2022/01/22 18:31:41;;;;;;;10.48;5.05;;;;;;;-2.83;100.00;96560.75;5032321;28;20075;-66
2022/01/22 18:34:07;;;;;;;10.15;5.03;;;;;;;-2.83;100.00;96566.00;5036383;28;20504;-66
2022/01/22 18:36:34;;;;;;;9.27;5.13;;;;;;;-2.78;100.00;96568.19;5017337;28;20031;-66
2022/01/22 18:39:01;;;;;;;10.65;5.60;;;;;;;-2.77;100.00;96568.03;5034806;28;20025;-66
2022/01/22 18:41:28;;;;;;;7.55;4.70;;;;;;;-2.74;100.00;96575.59;5035816;28;20093;-65
2022/01/22 18:43:53;;;;;;;8.82;4.57;;;;;;;-2.75;100.00;96583.63;5035966;28;20033;-68
2022/01/22 18:46:21;;;;;;;8.90;5.30;;;;;;;-2.80;100.00;96584.06;5019047;28;20035;-66
2022/01/22 18:48:46;;;;;;;7.97;5.38;;;;;;;-2.79;100.00;96590.97;5009975;28;20087;-65
2022/01/22 18:51:12;;;;;;;14.60;5.47;;;;;;;-2.80;100.00;96596.38;5015570;28;20045;-66
2022/01/22 18:53:40;;;;;;;6.90;4.75;;;;;;;-2.79;100.00;96605.88;5021805;28;20013;-65
2022/01/22 18:56:06;;;;;;;9.48;5.18;;;;;;;-2.80;100.00;96602.44;5009038;28;20029;-66
2022/01/22 18:58:35;;;;;;;8.88;5.28;;;;;;;-2.82;100.00;96614.00;5007532;28;20495;-65
2022/01/22 19:01:09;;;;;;;7.25;4.70;;;;;;;-2.83;100.00;96601.88;5027313;28;20481;-66
2022/01/22 19:03:35;;;;;;;6.82;4.57;;;;;;;-2.86;100.00;96604.78;5025384;28;20107;-66
2022/01/22 19:06:03;;;;;;;11.77;5.30;;;;;;;-2.87;100.00;96613.63;5020323;28;20470;-66
2022/01/22 19:08:30;;;;;;;10.18;4.18;;;;;;;-2.88;100.00;96615.44;5023768;28;20026;-66
2022/01/22 19:10:56;;;;;;;8.48;4.97;;;;;;;-2.92;100.00;96617.53;5029622;28;20022;-66
2022/01/22 19:13:21;;;;;;;9.63;5.40;;;;;;;-2.92;100.00;96621.94;5020554;28;20037;-65
2022/01/22 19:15:51;;;;;;;9.88;5.55;;;;;;;-2.94;100.00;96619.44;5009571;28;20025;-66
2022/01/22 19:18:19;;;;;;;8.20;5.20;;;;;;;-2.92;100.00;96622.75;5023972;28;20496;-65
2022/01/22 19:20:48;;;;;;;7.25;4.95;;;;;;;-2.90;100.00;96624.41;5020056;28;20030;-66
2022/01/22 19:23:29;;;;;;;7.28;4.85;;;;;;;-2.92;100.00;96630.63;5021134;28;20061;-66
2022/01/22 19:28:19;;;;;;;8.20;5.38;;;;;;;-2.96;100.00;96637.13;5015056;28;20030;-66
2022/01/22 19:30:49;;;;;;;10.13;5.22;;;;;;;-3.02;100.00;96636.88;5023712;28;20021;-65
2022/01/22 19:33:17;;;;;;;13.23;5.10;;;;;;;-3.00;100.00;96637.56;5019098;28;20054;-65
2022/01/22 19:35:47;;;;;;;8.75;5.28;;;;;;;-3.03;100.00;96645.72;5028279;28;20038;-65
2022/01/22 19:38:14;;;;;;;8.93;5.18;;;;;;;-3.06;100.00;96644.19;5022362;28;20095;-65
2022/01/22 19:40:47;;;;;;;5.72;4.43;;;;;;;-3.05;100.00;96650.25;5001276;28;20033;-65
2022/01/22 19:43:13;;;;;;;8.95;4.95;;;;;;;-3.07;100.00;96653.00;5002110;28;20113;-66
2022/01/22 19:45:41;;;;;;;13.20;7.80;;;;;;;-3.07;100.00;96641.69;5025989;28;20022;-66
2022/01/22 19:48:08;;;;;;;6.63;4.43;;;;;;;-3.07;100.00;96644.31;5023927;28;20107;-66
2022/01/22 19:50:38;;;;;;;9.18;4.68;;;;;;;-3.08;100.00;96658.41;5026628;28;20499;-66
2022/01/22 19:53:06;;;;;;;6.72;4.68;;;;;;;-3.09;100.00;96648.88;5023432;28;20035;-66
2022/01/22 19:55:32;;;;;;;7.63;4.97;;;;;;;-3.07;100.00;96647.75;5015028;28;20484;-66
2022/01/22 19:58:04;;;;;;;9.50;5.90;;;;;;;-3.05;100.00;96642.38;5012607;28;20030;-66
2022/01/22 20:00:31;;;;;;;8.13;5.38;;;;;;;-3.09;100.00;96646.25;5015883;28;20046;-66
2022/01/22 20:03:00;;;;;;;8.88;5.13;;;;;;;-3.11;100.00;96640.34;5023577;28;20061;-66
2022/01/22 20:05:26;;;;;;;11.00;5.93;;;;;;;-3.12;100.00;96639.53;5018180;28;20374;-65
2022/01/22 20:07:52;;;;;;;9.82;5.82;;;;;;;-3.05;100.00;96637.97;5017914;28;20097;-65
2022/01/22 20:10:21;;;;;;;11.05;5.43;;;;;;;-3.05;100.00;96635.34;5006605;28;20104;-65
2022/01/22 20:12:47;;;;;;;8.52;5.30;;;;;;;-3.06;100.00;96643.34;5023188;28;20052;-65
2022/01/22 20:15:13;;;;;;;8.07;4.88;;;;;;;-3.08;100.00;96640.88;5001918;28;20065;-65
2022/01/22 20:17:38;;;;;;;9.30;5.93;;;;;;;-3.10;100.00;96629.72;5019713;28;20033;-65
2022/01/22 20:20:05;;;;;;;7.95;5.55;;;;;;;-3.09;100.00;96626.13;5023095;28;20111;-65
2022/01/22 20:22:31;;;;;;;10.80;5.65;;;;;;;-3.09;100.00;96636.59;5017116;28;20124;-64
2022/01/22 20:24:56;;;;;;;9.57;5.80;;;;;;;-3.10;100.00;96634.13;4989201;28;20109;-65
2022/01/22 20:27:23;;;;;;;8.57;5.13;;;;;;;-3.12;100.00;96630.84;5027758;28;20284;-65
2022/01/22 20:29:49;;;;;;;10.45;4.70;;;;;;;-3.15;100.00;96641.56;5018049;28;20056;-65
2022/01/22 20:32:14;;;;;;;8.50;5.03;;;;;;;-3.22;100.00;96633.47;5030165;28;20052;-64
2022/01/22 20:34:40;;;;;;;7.63;4.47;;;;;;;-3.23;100.00;96629.19;5016902;28;20044;-65
2022/01/22 20:37:05;;;;;;;7.68;4.97;;;;;;;-3.25;100.00;96633.75;5002329;28;20026;-65
2022/01/22 20:39:30;;;;;;;9.00;5.63;;;;;;;-3.22;100.00;96630.84;5006405;28;20049;-65
2022/01/22 20:41:56;;;;;;;10.35;5.05;;;;;;;-3.23;100.00;96639.69;5020075;28;20057;-65
2022/01/22 20:44:22;;;;;;;40.53;15.20;;;;;;;-3.27;100.00;96635.69;5017540;28;20395;-66
2022/01/22 20:46:56;;;;;;;9.25;5.75;;;;;;;-3.28;100.00;96636.66;5020619;28;20029;-65
2022/01/22 20:49:31;;;;;;;8.05;4.25;;;;;;;-3.32;100.00;96627.44;5023566;28;20026;-65
2022/01/22 20:52:01;;;;;;;7.45;4.57;;;;;;;-3.34;100.00;96632.81;5023809;28;20029;-65
2022/01/22 20:54:29;;;;;;;10.38;4.82;;;;;;;-3.40;100.00;96637.78;5013436;28;20030;-65
2022/01/22 20:56:57;;;;;;;12.40;5.38;;;;;;;-3.44;100.00;96633.78;5007236;28;20029;-65
2022/01/22 20:59:22;;;;;;;8.93;4.75;;;;;;;-3.47;100.00;96636.66;5016920;28;20025;-64
2022/01/22 21:01:50;;;;;;;6.35;4.00;;;;;;;-3.46;100.00;96633.13;5023395;28;20029;-64
2022/01/22 21:04:16;;;;;;;6.15;4.43;;;;;;;-3.51;100.00;96633.50;5001278;28;20471;-64
2022/01/22 21:06:43;;;;;;;7.75;4.68;;;;;;;-3.52;100.00;96634.47;5029232;28;20108;-64
2022/01/22 21:09:11;;;;;;;8.27;4.63;;;;;;;-3.52;100.00;96637.09;5001150;28;20029;-64
2022/01/22 21:11:37;;;;;;;6.65;4.22;;;;;;;-3.53;100.00;96632.84;5017679;28;20029;-65
2022/01/22 21:14:03;;;;;;;6.25;4.40;;;;;;;-3.51;100.00;96634.34;5000588;28;20028;-63
2022/01/22 21:16:30;;;;;;;8.73;4.75;;;;;;;-3.48;100.00;96630.59;5000031;28;20407;-65
2022/01/22 21:18:59;;;;;;;8.23;4.70;;;;;;;-3.48;100.00;96632.41;5026616;28;20115;-64
2022/01/22 21:21:26;;;;;;;7.40;4.80;;;;;;;-3.50;100.00;96630.75;5017466;28;20032;-63
2022/01/22 21:23:51;;;;;;;8.10;4.70;;;;;;;-3.50;100.00;96630.75;5007695;28;20037;-64
2022/01/22 21:26:18;;;;;;;6.70;4.57;;;;;;;-3.51;100.00;96634.34;5006901;28;20485;-64
2022/01/22 21:28:45;;;;;;;6.68;4.90;;;;;;;-3.51;100.00;96633.50;5021345;28;20105;-64
2022/01/22 21:31:11;;;;;;;7.82;4.25;;;;;;;-3.53;100.00;96631.03;5024617;28;20112;-64
2022/01/22 21:33:47;;;;;;;9.00;4.72;;;;;;;-3.53;100.00;96627.59;5019092;28;20124;-64
2022/01/22 21:36:12;;;;;;;10.07;4.70;;;;;;;-3.55;100.00;96621.69;5028772;28;20396;-64
2022/01/22 21:39:41;;;;;;;10.70;5.07;;;;;;;-3.57;100.00;96618.38;5020169;28;20033;-64
2022/01/22 21:41:23;;;;;;;8.48;5.32;;;;;;;-3.53;100.00;96615.31;5022763;28;20034;-64
2022/01/22 21:43:48;;;;;;;6.60;4.72;;;;;;;-3.51;100.00;96616.00;5029266;28;20026;-64
2022/01/22 21:46:14;;;;;;;8.00;5.43;;;;;;;-3.43;100.00;96606.63;5016838;28;20021;-64
2022/01/22 21:48:43;;;;;;;8.75;5.38;;;;;;;-3.38;100.00;96609.63;5029151;28;20459;-64
2022/01/22 21:51:09;;;;;;;9.65;5.55;;;;;;;-3.38;100.00;96614.88;5024655;28;20444;-63
2022/01/22 21:53:40;;;;;;;8.00;5.45;;;;;;;-3.42;100.00;96611.72;5019995;28;20104;-63
2022/01/22 21:56:09;;;;;;;10.68;5.72;;;;;;;-3.42;100.00;96605.66;4992726;28;20218;-63
2022/01/22 21:58:34;;;;;;;9.52;5.97;;;;;;;-3.43;100.00;96602.22;5023430;28;20096;-64
2022/01/22 22:00:59;;;;;;;9.13;6.00;;;;;;;-3.42;100.00;96608.28;5001738;28;20113;-64
2022/01/22 22:03:26;;;;;;;11.05;6.10;;;;;;;-3.45;100.00;96603.31;5011763;28;20025;-63
2022/01/22 22:05:52;;;;;;;7.30;5.35;;;;;;;-3.50;100.00;96614.22;4996917;28;20522;-63
2022/01/22 22:08:18;;;;;;;10.20;6.10;;;;;;;-3.53;100.00;96604.84;4998864;28;20026;-61
2022/01/22 22:10:43;;;;;;;7.90;5.60;;;;;;;-3.54;100.00;96610.22;5005997;28;20030;-64
2022/01/22 22:13:09;;;;;;;11.43;6.57;;;;;;;-3.57;100.00;96608.72;4994700;28;20042;-63
2022/01/22 22:15:40;;;;;;;12.18;6.82;;;;;;;-3.58;100.00;96606.25;5005733;28;20030;-64
2022/01/22 22:18:06;;;;;;;10.88;6.22;;;;;;;-3.63;100.00;96606.66;5022294;28;20057;-64